Time;durP1;ratioP1;P1;durP2;ratioP2;P2;SDS_P1;SDS_P2;PMS_P1;PMS_P2;Temp;Humidity;BMP_temperature;BMP_pressure;BME280_temperature;BME280_humidity;BME280_pressure;Samples;Min_cycle;Max_cycle;Signal;HPM_P1;HPM_P2
2022/01/26 00:07:09;;;;;;;;;26.50;24.75;;;;;-146.25;100.00;57879.81;5033205;28;45474;-73
2022/01/26 00:09:34;;;;;;;;;35.75;30.25;;;;;-146.25;100.00;57879.81;5034977;28;45464;-74
2022/01/26 00:12:00;;;;;;;;;39.75;35.25;;;;;-146.25;100.00;57879.81;5034656;28;45534;-74
2022/01/26 00:14:25;;;;;;;;;42.00;36.75;;;;;-146.25;100.00;57879.81;5034525;28;45347;-74
2022/01/26 00:16:51;;;;;;;;;35.25;30.25;;;;;-146.25;100.00;57879.81;5035057;28;45564;-73
2022/01/26 00:19:25;;;;;;;;;39.00;32.25;;;;;-146.25;100.00;57879.81;5034876;28;45599;-74
2022/01/26 00:21:52;;;;;;;;;34.50;28.75;;;;;-146.25;100.00;57879.81;5034934;28;45408;-74
2022/01/26 00:29:32;;;;;;;;;36.75;32.50;;;;;-146.25;100.00;57879.81;5035138;28;45624;-73
2022/01/26 00:43:01;;;;;;;;;46.00;38.00;;;;;-146.25;100.00;57879.81;5037431;28;45544;-73
2022/01/26 00:45:34;;;;;;;;;38.25;33.50;;;;;-146.25;100.00;57879.81;5035734;28;45406;-73
2022/01/26 00:48:03;;;;;;;;;36.50;34.00;;;;;-146.25;100.00;57879.81;5037892;28;45447;-73
2022/01/26 00:50:30;;;;;;;;;42.25;35.25;;;;;-146.25;100.00;57879.81;5037867;28;45272;-73
2022/01/26 00:52:56;;;;;;;;;41.25;36.25;;;;;-146.25;100.00;57879.81;5037609;28;45373;-73
2022/01/26 00:55:22;;;;;;;;;45.25;38.25;;;;;-146.25;100.00;57879.81;5034964;28;45440;-73
2022/01/26 00:57:48;;;;;;;;;45.75;35.75;;;;;-146.25;100.00;57879.81;5037342;28;45584;-73
2022/01/26 01:00:26;;;;;;;;;33.75;32.00;;;;;-146.25;100.00;57879.81;5037868;28;45575;-73
2022/01/26 01:02:54;;;;;;;;;30.75;27.25;;;;;-146.25;100.00;57879.81;5036215;28;46202;-73
2022/01/26 01:05:24;;;;;;;;;29.25;27.50;;;;;-146.25;100.00;57879.81;5037596;28;45393;-72
2022/01/26 01:07:56;;;;;;;;;30.00;26.00;;;;;-146.25;100.00;57879.81;5037697;28;45616;-73
2022/01/26 01:10:24;;;;;;;;;35.25;28.75;;;;;-146.25;100.00;57879.81;5038046;28;45512;-72
2022/01/26 01:12:54;;;;;;;;;30.25;27.25;;;;;-146.25;100.00;57879.81;5037515;28;46115;-72
2022/01/26 01:15:20;;;;;;;;;31.00;29.25;;;;;-146.25;100.00;57879.81;5052575;28;45411;-73
2022/01/26 01:17:51;;;;;;;;;36.25;28.75;;;;;-146.25;100.00;57879.81;5037594;28;45369;-73
2022/01/26 01:26:11;;;;;;;;;29.50;27.00;;;;;-146.25;100.00;57879.81;5037269;28;45499;-73
2022/01/26 01:31:56;;;;;;;;;34.00;31.50;;;;;-146.25;100.00;57879.81;5037355;28;45433;-73
2022/01/26 01:34:16;;;;;;;;;28.25;26.75;;;;;-146.25;100.00;57879.81;5030641;28;45921;-73
2022/01/26 01:36:45;;;;;;;;;27.75;26.75;;;;;-146.25;100.00;57879.81;5036935;28;45505;-73
2022/01/26 01:39:11;;;;;;;;;29.25;27.25;;;;;-146.25;100.00;57879.81;5036962;28;45487;-73
2022/01/26 01:41:39;;;;;;;;;29.25;25.00;;;;;-146.25;100.00;57879.81;5037769;28;45425;-73
2022/01/26 01:44:06;;;;;;;;;27.75;24.50;;;;;-146.25;100.00;57879.81;5034467;28;45476;-73
2022/01/26 01:46:33;;;;;;;;;24.25;22.50;;;;;-146.25;100.00;57879.81;5036879;28;45591;-73
2022/01/26 01:49:00;;;;;;;;;25.25;21.00;;;;;-146.25;100.00;57879.81;5037000;28;45484;-73
2022/01/26 01:51:32;;;;;;;;;27.50;23.75;;;;;-146.25;100.00;57879.81;5037052;28;45486;-72
2022/01/26 01:53:57;;;;;;;;;25.50;23.00;;;;;-146.25;100.00;57879.81;5035364;28;45579;-73
2022/01/26 01:56:26;;;;;;;;;26.00;23.25;;;;;-146.25;100.00;57879.81;5034368;28;45296;-73
2022/01/26 01:58:58;;;;;;;;;26.75;22.25;;;;;-146.25;100.00;57879.81;5037144;28;45326;-72
2022/01/26 02:01:24;;;;;;;;;24.50;22.75;;;;;-146.25;100.00;57879.81;5031441;28;45448;-72
2022/01/26 02:03:51;;;;;;;;;22.75;19.00;;;;;-146.25;100.00;57879.81;5036647;28;45402;-72
2022/01/26 02:06:17;;;;;;;;;22.75;20.75;;;;;-146.25;100.00;57879.81;5036295;28;45409;-72
2022/01/26 02:08:43;;;;;;;;;24.50;23.00;;;;;-146.25;100.00;57879.81;5036592;28;45382;-72
2022/01/26 02:11:11;;;;;;;;;22.25;21.00;;;;;-146.25;100.00;57879.81;5038532;28;45479;-73
2022/01/26 02:16:18;;;;;;;;;25.00;22.50;;;;;-146.25;100.00;57879.81;5038112;28;45495;-73
2022/01/26 02:57:11;;;;;;;;;34.75;32.00;;;;;-146.25;100.00;57879.81;5037344;28;45827;-73
2022/01/26 03:02:31;;;;;;;;;30.75;28.75;;;;;-146.25;100.00;57879.81;5037501;28;45425;-72
2022/01/26 03:04:59;;;;;;;;;35.00;27.75;;;;;-146.25;100.00;57879.81;5037962;28;45283;-73
2022/01/26 03:10:01;;;;;;;;;26.50;25.25;;;;;-146.25;100.00;57879.81;5037171;28;45333;-73
2022/01/26 03:12:35;;;;;;;;;22.00;21.00;;;;;-146.25;100.00;57879.81;5037880;28;45325;-72
2022/01/26 03:15:11;;;;;;;;;20.00;18.25;;;;;-146.25;100.00;57879.81;5037355;28;45244;-73
2022/01/26 03:17:57;;;;;;;;;18.75;17.25;;;;;-146.25;100.00;57879.81;5037017;28;45967;-73
2022/01/26 03:20:22;;;;;;;;;16.75;16.50;;;;;-146.25;100.00;57879.81;5036832;28;45409;-73
2022/01/26 03:35:47;;;;;;;;;19.25;18.00;;;;;-146.25;100.00;57879.81;5037087;28;45770;-72
2022/01/26 03:38:41;;;;;;;;;18.00;16.25;;;;;-146.25;100.00;57879.81;5036796;28;46249;-73
2022/01/26 03:41:16;;;;;;;;;17.50;15.00;;;;;-146.25;100.00;57879.81;5036730;28;45367;-73
2022/01/26 03:43:42;;;;;;;;;13.00;12.00;;;;;-146.25;100.00;57879.81;5035705;28;45320;-72
2022/01/26 03:46:08;;;;;;;;;16.00;13.50;;;;;-146.25;100.00;57879.81;5037162;28;45352;-72
2022/01/26 03:48:34;;;;;;;;;8.00;8.00;;;;;-146.25;100.00;57879.81;5036778;28;45496;-73
2022/01/26 03:51:01;;;;;;;;;12.25;12.25;;;;;-146.25;100.00;57879.81;5037046;28;45449;-73
2022/01/26 03:53:26;;;;;;;;;11.50;10.00;;;;;-146.25;100.00;57879.81;5036911;28;45380;-73
2022/01/26 03:55:52;;;;;;;;;9.25;7.50;;;;;-146.25;100.00;57879.81;5036876;28;45166;-73
2022/01/26 03:58:18;;;;;;;;;14.75;13.00;;;;;-146.25;100.00;57879.81;5036609;28;46079;-72
2022/01/26 04:00:43;;;;;;;;;15.50;13.25;;;;;-146.25;100.00;57879.81;5036514;28;45434;-72
2022/01/26 04:03:09;;;;;;;;;11.50;11.50;;;;;-146.25;100.00;57879.81;5036619;28;45485;-72
2022/01/26 04:05:35;;;;;;;;;15.00;13.25;;;;;-146.25;100.00;57879.81;5038244;28;45463;-73
2022/01/26 04:08:07;;;;;;;;;14.00;13.50;;;;;-146.25;100.00;57879.81;5040313;28;45468;-73
2022/01/26 04:10:50;;;;;;;;;13.25;11.00;;;;;-146.25;100.00;57879.81;5040099;28;45515;-73
2022/01/26 04:13:16;;;;;;;;;14.25;12.25;;;;;-146.25;100.00;57879.81;5039599;28;45272;-72
2022/01/26 04:15:42;;;;;;;;;13.75;13.25;;;;;-146.25;100.00;57879.81;5040105;28;45690;-73
2022/01/26 04:18:12;;;;;;;;;14.50;12.00;;;;;-146.25;100.00;57879.81;5039790;28;45995;-72
2022/01/26 04:20:42;;;;;;;;;16.00;15.25;;;;;-146.25;100.00;57879.81;5038426;28;45502;-72
2022/01/26 04:23:24;;;;;;;;;16.00;13.25;;;;;-146.25;100.00;57879.81;5039806;28;45899;-73
2022/01/26 04:25:51;;;;;;;;;17.75;12.50;;;;;-146.25;100.00;57879.81;5039909;28;45158;-72
2022/01/26 04:28:23;;;;;;;;;16.00;13.00;;;;;-146.25;100.00;57879.81;5038358;28;45280;-73
2022/01/26 04:30:50;;;;;;;;;18.25;14.50;;;;;-146.25;100.00;57879.81;5039678;28;45476;-73
2022/01/26 04:33:16;;;;;;;;;19.25;16.00;;;;;-146.25;100.00;57879.81;5039693;28;45196;-73
2022/01/26 04:35:43;;;;;;;;;16.75;13.25;;;;;-146.25;100.00;57879.81;5039726;28;45508;-72
2022/01/26 04:40:45;;;;;;;;;13.00;12.00;;;;;-146.25;100.00;57879.81;5039374;28;45353;-73
2022/01/26 04:43:19;;;;;;;;;15.75;12.75;;;;;-146.25;100.00;57879.81;5039216;28;45370;-72
2022/01/26 04:45:45;;;;;;;;;18.25;17.00;;;;;-146.25;100.00;57879.81;5027159;28;45316;-72
2022/01/26 04:48:10;;;;;;;;;22.25;20.25;;;;;-146.25;100.00;57879.81;5027301;28;45442;-72
2022/01/26 04:50:36;;;;;;;;;16.75;14.25;;;;;-146.25;100.00;57879.81;5028477;28;45468;-72
2022/01/26 04:53:02;;;;;;;;;15.25;13.00;;;;;-146.25;100.00;57879.81;5027087;28;45370;-72
2022/01/26 04:55:28;;;;;;;;;12.00;9.50;;;;;-146.25;100.00;57879.81;5028222;28;45368;-72
2022/01/26 04:57:53;;;;;;;;;5.50;5.00;;;;;-146.25;100.00;57879.81;5028197;28;45926;-73
2022/01/26 05:00:19;;;;;;;;;10.50;8.75;;;;;-146.25;100.00;57879.81;5026579;28;45408;-72
2022/01/26 05:02:45;;;;;;;;;8.75;8.75;;;;;-146.25;100.00;57879.81;5028390;28;45426;-72
2022/01/26 05:05:10;;;;;;;;;9.50;9.00;;;;;-146.25;100.00;57879.81;5028002;28;45535;-72
2022/01/26 05:07:36;;;;;;;;;48.00;42.00;;;;;-146.25;100.00;57879.81;5026373;28;45931;-73
2022/01/26 05:10:03;;;;;;;;;222.50;181.25;;;;;-146.25;100.00;57879.81;5025669;28;45509;-73
2022/01/26 05:12:29;;;;;;;;;74.75;59.25;;;;;-146.25;100.00;57879.81;5028917;28;45769;-72
2022/01/26 05:14:55;;;;;;;;;128.00;107.00;;;;;-146.25;100.00;57879.81;5028469;28;45412;-72
2022/01/26 05:17:22;;;;;;;;;12.50;10.50;;;;;-146.25;100.00;57879.81;5025876;28;46100;-72
2022/01/26 05:19:53;;;;;;;;;12.75;10.50;;;;;-146.25;100.00;57879.81;5027510;28;45454;-72
2022/01/26 05:22:18;;;;;;;;;10.00;10.00;;;;;-146.25;100.00;57879.81;5028254;28;45538;-73
2022/01/26 05:24:44;;;;;;;;;12.25;10.00;;;;;-146.25;100.00;57879.81;5026904;28;45410;-72
2022/01/26 05:27:09;;;;;;;;;26.75;24.00;;;;;-146.25;100.00;57879.81;5027187;28;46101;-72
2022/01/26 05:29:35;;;;;;;;;24.50;21.75;;;;;-146.25;100.00;57879.81;5027640;28;45402;-73
2022/01/26 05:32:01;;;;;;;;;17.75;16.00;;;;;-146.25;100.00;57879.81;5026931;28;45349;-72
2022/01/26 05:34:26;;;;;;;;;35.50;30.50;;;;;-146.25;100.00;57879.81;5027684;28;45434;-72
2022/01/26 05:36:52;;;;;;;;;25.50;25.50;;;;;-146.25;100.00;57879.81;5027261;28;45712;-73
2022/01/26 05:39:17;;;;;;;;;33.25;30.00;;;;;-146.25;100.00;57879.81;5025707;28;45488;-73
2022/01/26 05:41:43;;;;;;;;;29.00;24.00;;;;;-146.25;100.00;57879.81;5027914;28;45340;-72
2022/01/26 05:44:08;;;;;;;;;39.25;36.25;;;;;-146.25;100.00;57879.81;5026973;28;45300;-72
2022/01/26 05:46:40;;;;;;;;;53.75;43.25;;;;;-146.25;100.00;57879.81;5019510;28;46087;-72
2022/01/26 05:49:06;;;;;;;;;40.00;36.25;;;;;-146.25;100.00;57879.81;5018363;28;45382;-73
2022/01/26 05:51:33;;;;;;;;;23.50;20.75;;;;;-146.25;100.00;57879.81;5019172;28;45408;-72
2022/01/26 05:53:59;;;;;;;;;26.00;23.50;;;;;-146.25;100.00;57879.81;5018903;28;45470;-72
2022/01/26 05:56:24;;;;;;;;;32.25;27.00;;;;;-146.25;100.00;57879.81;5018346;28;46004;-73
2022/01/26 05:58:50;;;;;;;;;29.75;26.50;;;;;-146.25;100.00;57879.81;5018598;28;45449;-73
2022/01/26 06:01:15;;;;;;;;;15.00;14.25;;;;;-146.25;100.00;57879.81;5018679;28;45395;-73
2022/01/26 06:03:41;;;;;;;;;13.75;13.75;;;;;-146.25;100.00;57879.81;5018688;28;45335;-73
2022/01/26 06:06:07;;;;;;;;;21.25;16.75;;;;;-146.25;100.00;57879.81;5018322;28;46032;-73
2022/01/26 06:08:32;;;;;;;;;49.00;41.50;;;;;-146.25;100.00;57879.81;5018665;28;45501;-72
2022/01/26 06:10:59;;;;;;;;;21.50;15.75;;;;;-146.25;100.00;57879.81;5018293;28;45326;-73
2022/01/26 06:13:25;;;;;;;;;13.25;13.25;;;;;-146.25;100.00;57879.81;5018428;28;45453;-72
2022/01/26 06:15:51;;;;;;;;;18.00;17.50;;;;;-146.25;100.00;57879.81;5018235;28;46213;-73
2022/01/26 06:18:17;;;;;;;;;24.25;21.25;;;;;-146.25;100.00;57879.81;5018086;28;45544;-73
2022/01/26 06:20:43;;;;;;;;;20.00;18.50;;;;;-146.25;100.00;57879.81;5018295;28;45500;-73
2022/01/26 06:23:08;;;;;;;;;16.00;15.00;;;;;-146.25;100.00;57879.81;5018394;28;46216;-73
2022/01/26 06:25:34;;;;;;;;;15.00;14.75;;;;;-146.25;100.00;57879.81;5018311;28;45516;-73
2022/01/26 06:28:05;;;;;;;;;20.00;17.25;;;;;-146.25;100.00;57879.81;5017247;28;45322;-73
2022/01/26 06:30:31;;;;;;;;;18.25;15.75;;;;;-146.25;100.00;57879.81;5017953;28;45406;-72
2022/01/26 06:32:57;;;;;;;;;20.75;19.00;;;;;-146.25;100.00;57879.81;5017704;28;45383;-72
2022/01/26 06:35:23;;;;;;;;;21.50;19.25;;;;;-146.25;100.00;57879.81;5019893;28;46060;-73
2022/01/26 06:37:48;;;;;;;;;29.50;28.00;;;;;-146.25;100.00;57879.81;5026916;28;45317;-73
2022/01/26 06:40:14;;;;;;;;;20.00;19.00;;;;;-146.25;100.00;57879.81;5021964;28;45370;-73
2022/01/26 06:42:52;;;;;;;;;22.25;20.25;;;;;-146.25;100.00;57879.81;5015983;28;45718;-73
2022/01/26 06:45:19;;;;;;;;;24.25;20.00;;;;;-146.25;100.00;57879.81;5016955;28;45613;-73
2022/01/26 06:50:26;;;;;;;;;71.25;59.00;;;;;-146.25;100.00;57879.81;5017414;28;45545;-73
2022/01/26 06:52:52;;;;;;;;;29.00;26.25;;;;;-146.25;100.00;57879.81;5018306;28;45512;-73
2022/01/26 06:55:20;;;;;;;;;93.00;70.33;;;;;-146.25;100.00;57879.81;5017536;28;46098;-73
2022/01/26 06:57:46;;;;;;;;;64.25;51.75;;;;;-146.25;100.00;57879.81;5017438;28;45311;-73
2022/01/26 07:00:14;;;;;;;;;34.75;29.75;;;;;-146.25;100.00;57879.81;5017932;28;45889;-73
2022/01/26 07:02:39;;;;;;;;;41.75;30.25;;;;;-146.25;100.00;57879.81;5017917;28;45285;-73
2022/01/26 07:05:06;;;;;;;;;67.50;51.50;;;;;-146.25;100.00;57879.81;5017622;28;46015;-74
2022/01/26 07:07:32;;;;;;;;;54.75;43.25;;;;;-146.25;100.00;57879.81;5017038;28;45278;-75
2022/01/26 07:09:58;;;;;;;;;30.75;27.25;;;;;-146.25;100.00;57879.81;5017423;28;45461;-72
2022/01/26 07:12:24;;;;;;;;;32.75;31.50;;;;;-146.25;100.00;57879.81;5017587;28;45294;-72
2022/01/26 07:23:01;;;;;;;;;31.75;29.50;;;;;-146.25;100.00;57879.81;5017498;28;45476;-72
2022/01/26 07:25:27;;;;;;;;;26.50;23.00;;;;;-146.25;100.00;57879.81;5016860;28;46368;-73
2022/01/26 07:27:52;;;;;;;;;25.50;23.00;;;;;-146.25;100.00;57879.81;5016504;28;45538;-72
2022/01/26 07:30:18;;;;;;;;;29.50;28.50;;;;;-146.25;100.00;57879.81;5016767;28;45453;-72
2022/01/26 07:32:44;;;;;;;;;24.25;22.50;;;;;-146.25;100.00;57879.81;5017358;28;45556;-73
2022/01/26 07:35:09;;;;;;;;;27.25;24.50;;;;;-146.25;100.00;57879.81;5016855;28;46042;-72
2022/01/26 07:37:35;;;;;;;;;26.50;25.00;;;;;-146.25;100.00;57879.81;5017091;28;45458;-72
2022/01/26 07:40:07;;;;;;;;;26.00;24.00;;;;;-146.25;100.00;57879.81;5016903;28;45303;-73
2022/01/26 07:42:34;;;;;;;;;26.25;24.75;;;;;-146.25;100.00;57879.81;5017202;28;45400;-73
2022/01/26 07:45:01;;;;;;;;;60.00;48.00;;;;;-146.25;100.00;57879.81;5017071;28;45295;-72
2022/01/26 07:47:29;;;;;;;;;35.00;31.00;;;;;-146.25;100.00;57879.81;5016911;28;45593;-73
2022/01/26 07:49:56;;;;;;;;;56.00;45.50;;;;;-146.25;100.00;57879.81;5016666;28;45950;-72
2022/01/26 07:52:23;;;;;;;;;47.25;43.00;;;;;-146.25;100.00;57879.81;5016880;28;45442;-71
2022/01/26 07:54:51;;;;;;;;;48.75;42.25;;;;;-146.25;100.00;57879.81;5017935;28;45975;-73
2022/01/26 07:57:18;;;;;;;;;71.25;52.75;;;;;-146.25;100.00;57879.81;5032180;28;45438;-73
2022/01/26 07:59:44;;;;;;;;;68.75;53.00;;;;;-146.25;100.00;57879.81;5033613;28;46353;-72
2022/01/26 08:02:10;;;;;;;;;47.75;41.25;;;;;-146.25;100.00;57879.81;5035807;28;45460;-72
2022/01/26 08:04:35;;;;;;;;;42.50;38.25;;;;;-146.25;100.00;57879.81;5031850;28;45513;-72
2022/01/26 08:07:01;;;;;;;;;37.75;34.00;;;;;-146.25;100.00;57879.81;5024876;28;45748;-71
2022/01/26 08:09:27;;;;;;;;;24.25;21.00;;;;;-146.25;100.00;57879.81;5025692;28;45852;-72
2022/01/26 08:11:52;;;;;;;;;15.75;15.00;;;;;-146.25;100.00;57879.81;5024996;28;45896;-73
2022/01/26 08:14:19;;;;;;;;;19.50;18.50;;;;;-146.25;100.00;57879.81;5026541;28;46152;-72
2022/01/26 08:16:44;;;;;;;;;23.25;23.00;;;;;-146.25;100.00;57879.81;5020843;28;45502;-73
2022/01/26 08:19:13;;;;;;;;;35.00;28.75;;;;;-146.25;100.00;57879.81;5016493;28;45554;-73
2022/01/26 08:21:39;;;;;;;;;45.75;39.00;;;;;-146.25;100.00;57879.81;5016735;28;45542;-72
2022/01/26 08:24:12;;;;;;;;;46.75;40.50;;;;;-146.25;100.00;57879.81;5016382;28;45352;-72
2022/01/26 08:26:43;;;;;;;;;44.75;38.25;;;;;-146.25;100.00;57879.81;5016536;28;45498;-72
2022/01/26 08:29:15;;;;;;;;;13.75;10.50;;;;;-146.25;100.00;57879.81;5016598;28;45600;-73
2022/01/26 08:31:41;;;;;;;;;38.25;34.00;;;;;-146.25;100.00;57879.81;5016595;28;45501;-73
2022/01/26 08:34:07;;;;;;;;;34.75;31.00;;;;;-146.25;100.00;57879.81;5016490;28;46045;-73
2022/01/26 08:36:33;;;;;;;;;36.50;29.75;;;;;-146.25;100.00;57879.81;5016334;28;45556;-73
2022/01/26 08:38:58;;;;;;;;;24.00;22.50;;;;;-146.25;100.00;57879.81;5016384;28;45377;-73
2022/01/26 08:41:24;;;;;;;;;29.00;28.75;;;;;-146.25;100.00;57879.81;5016469;28;45332;-73
2022/01/26 08:43:49;;;;;;;;;21.00;19.00;;;;;-146.25;100.00;57879.81;5016081;28;45409;-73
2022/01/26 08:46:18;;;;;;;;;21.25;18.00;;;;;-146.25;100.00;57879.81;5015971;28;45465;-73
2022/01/26 08:48:43;;;;;;;;;31.25;29.75;;;;;-146.25;100.00;57879.81;5016146;28;45500;-73
2022/01/26 08:51:09;;;;;;;;;34.50;30.75;;;;;-146.25;100.00;57879.81;5017254;28;45266;-73
2022/01/26 08:53:35;;;;;;;;;46.75;42.00;;;;;-146.25;100.00;57879.81;5019173;28;45489;-73
2022/01/26 08:56:00;;;;;;;;;39.00;32.75;;;;;-146.25;100.00;57879.81;5019384;28;45501;-73
2022/01/26 08:58:26;;;;;;;;;63.50;50.00;;;;;-146.25;100.00;57879.81;5019467;28;45482;-73
2022/01/26 09:00:52;;;;;;;;;33.00;31.25;;;;;-146.25;100.00;57879.81;5019426;28;45244;-73
2022/01/26 09:03:18;;;;;;;;;42.00;39.25;;;;;-146.25;100.00;57879.81;5019564;28;46142;-74
2022/01/26 09:05:44;;;;;;;;;22.50;21.50;;;;;-146.25;100.00;57879.81;5019229;28;45560;-73
2022/01/26 09:08:09;;;;;;;;;49.75;41.75;;;;;-146.25;100.00;57879.81;5019692;28;45525;-73
2022/01/26 09:10:37;;;;;;;;;21.50;21.50;;;;;-146.25;100.00;57879.81;5019359;28;45416;-74
2022/01/26 09:13:03;;;;;;;;;23.50;22.50;;;;;-146.25;100.00;57879.81;5019138;28;45574;-74
2022/01/26 09:15:30;;;;;;;;;19.75;19.25;;;;;-146.25;100.00;57879.81;5018880;28;45339;-74
2022/01/26 09:17:58;;;;;;;;;59.25;48.00;;;;;-146.25;100.00;57879.81;5019346;28;45485;-74
2022/01/26 09:20:24;;;;;;;;;24.25;23.25;;;;;-146.25;100.00;57879.81;5019590;28;46058;-74
2022/01/26 09:22:49;;;;;;;;;25.75;24.75;;;;;-146.25;100.00;57879.81;5018889;28;45248;-74
2022/01/26 09:25:15;;;;;;;;;16.25;16.25;;;;;-146.25;100.00;57879.81;5018881;28;45477;-74
2022/01/26 09:27:41;;;;;;;;;11.33;10.33;;;;;-146.25;100.00;57879.81;5019395;28;45439;-75
2022/01/26 09:30:08;;;;;;;;;13.33;13.33;;;;;-146.25;100.00;57879.81;5019084;28;45262;-74
2022/01/26 09:32:33;;;;;;;;;42.00;36.25;;;;;-146.25;100.00;57879.81;5018587;28;46305;-74
2022/01/26 09:35:00;;;;;;;;;27.50;26.50;;;;;-146.25;100.00;57879.81;5018502;28;45517;-75
2022/01/26 09:37:25;;;;;;;;;18.33;16.67;;;;;-146.25;100.00;57879.81;5019194;28;45232;-75
2022/01/26 09:39:51;;;;;;;;;14.67;14.67;;;;;-146.25;100.00;57879.81;5018949;28;45215;-74
2022/01/26 09:42:17;;;;;;;;;9.67;9.00;;;;;-146.25;100.00;57879.81;5017146;28;45522;-74
2022/01/26 09:44:43;;;;;;;;;22.75;21.25;;;;;-146.25;100.00;57879.81;5018957;28;45489;-74
2022/01/26 09:47:10;;;;;;;;;19.00;18.00;;;;;-146.25;100.00;57879.81;5018851;28;45444;-75
2022/01/26 09:49:36;;;;;;;;;23.00;21.33;;;;;-146.25;100.00;57879.81;5018860;28;45378;-75
2022/01/26 09:52:13;;;;;;;;;16.67;15.00;;;;;-146.25;100.00;57879.81;5018604;28;46076;-76
2022/01/26 09:54:39;;;;;;;;;16.33;15.00;;;;;-146.25;100.00;57879.81;5033856;28;45527;-75
2022/01/26 09:57:04;;;;;;;;;46.25;38.25;;;;;-146.25;100.00;57879.81;5020444;28;45616;-75
2022/01/26 09:59:31;;;;;;;;;32.50;30.00;;;;;-146.25;100.00;57879.81;5036758;28;45435;-76
2022/01/26 10:02:01;;;;;;;;;28.25;27.25;;;;;-146.25;100.00;57879.81;5037591;28;46054;-76
2022/01/26 10:04:32;;;;;;;;;27.00;23.67;;;;;-146.25;100.00;57879.81;5037214;28;45692;-76
2022/01/26 10:07:15;;;;;;;;;24.33;22.00;;;;;-146.25;100.00;57879.81;5038375;28;45320;-77
2022/01/26 10:09:54;;;;;;;;;27.00;26.00;;;;;-146.25;100.00;57879.81;5038166;28;45605;-78
2022/01/26 10:18:15;;;;;;;;;16.00;14.67;;;;;-146.25;100.00;57879.81;4995714;28;45532;-77
2022/01/26 10:20:48;;;;;;;;;21.75;19.25;;;;;-146.25;100.00;57879.81;4996112;28;45357;-77
2022/01/26 10:23:18;;;;;;;;;19.00;19.00;;;;;-146.25;100.00;57879.81;5018746;28;45456;-77
2022/01/26 10:26:09;;;;;;;;;17.33;17.33;;;;;-146.25;100.00;57879.81;5038230;28;45570;-77
2022/01/26 10:28:47;;;;;;;;;15.67;14.33;;;;;-146.25;100.00;57879.81;5032218;28;45457;-77
2022/01/26 10:31:18;;;;;;;;;25.33;24.00;;;;;-146.25;100.00;57879.81;5038352;28;45499;-77
2022/01/26 10:34:07;;;;;;;;;29.33;27.67;;;;;-146.25;100.00;57879.81;5037919;28;46050;-78
2022/01/26 10:36:39;;;;;;;;;24.00;21.67;;;;;-146.25;100.00;57879.81;5037368;28;45550;-78
2022/01/26 10:39:10;;;;;;;;;24.75;24.25;;;;;-146.25;100.00;57879.81;5037911;28;45457;-78
2022/01/26 10:41:37;;;;;;;;;25.25;23.75;;;;;-146.25;100.00;57879.81;5038300;28;45169;-78
2022/01/26 10:44:04;;;;;;;;;21.33;20.00;;;;;-146.25;100.00;57879.81;5037412;28;45262;-78
2022/01/26 10:46:36;;;;;;;;;23.00;23.00;;;;;-146.25;100.00;57879.81;5037432;28;45532;-78
2022/01/26 10:49:43;;;;;;;;;16.00;16.00;;;;;-146.25;100.00;57879.81;5037474;28;45462;-78
2022/01/26 10:52:34;;;;;;;;;15.67;13.67;;;;;-146.25;100.00;57879.81;5037743;28;45267;-78
2022/01/26 10:54:59;;;;;;;;;15.00;15.00;;;;;-146.25;100.00;57879.81;5037414;28;46098;-78
2022/01/26 10:57:25;;;;;;;;;16.00;13.67;;;;;-146.25;100.00;57879.81;5037099;28;45502;-78
2022/01/26 10:59:52;;;;;;;;;18.00;17.00;;;;;-146.25;100.00;57879.81;5037554;28;45312;-78
2022/01/26 11:02:24;;;;;;;;;14.33;14.33;;;;;-146.25;100.00;57879.81;5037954;28;45521;-78
2022/01/26 11:04:49;;;;;;;;;16.00;16.00;;;;;-146.25;100.00;57879.81;5037597;28;45420;-78
2022/01/26 11:07:16;;;;;;;;;19.33;18.67;;;;;-146.25;100.00;57879.81;5037344;28;45481;-78
2022/01/26 11:09:47;;;;;;;;;14.67;12.67;;;;;-146.25;100.00;57879.81;5037444;28;45385;-78
2022/01/26 11:12:26;;;;;;;;;13.00;12.33;;;;;-146.25;100.00;57879.81;5037367;28;45345;-78
2022/01/26 11:14:58;;;;;;;;;12.33;12.33;;;;;-146.25;100.00;57879.81;5036690;28;46221;-78
2022/01/26 11:17:37;;;;;;;;;13.33;11.67;;;;;-146.25;100.00;57879.81;5037060;28;45394;-78
2022/01/26 11:20:32;;;;;;;;;13.00;12.00;;;;;-146.25;100.00;57879.81;5037197;28;45314;-78
2022/01/26 11:23:00;;;;;;;;;11.33;10.00;;;;;-146.25;100.00;57879.81;5037504;28;45473;-78
2022/01/26 11:25:28;;;;;;;;;11.00;10.67;;;;;-146.25;100.00;57879.81;5037006;28;45654;-78
2022/01/26 11:27:55;;;;;;;;;11.33;10.00;;;;;-146.25;100.00;57879.81;5037010;28;45384;-78
2022/01/26 11:30:26;;;;;;;;;11.00;10.67;;;;;-146.25;100.00;57879.81;5037258;28;45286;-78
2022/01/26 11:32:56;;;;;;;;;15.67;13.67;;;;;-146.25;100.00;57879.81;5037525;28;45445;-79
2022/01/26 11:35:24;;;;;;;;;14.67;13.67;;;;;-146.25;100.00;57879.81;5037047;28;46298;-78
2022/01/26 11:47:21;;;;;;;;;14.33;14.33;;;;;-146.25;100.00;57879.81;5036870;28;45550;-78
2022/01/26 11:49:49;;;;;;;;;16.00;16.00;;;;;-146.25;100.00;57879.81;5036368;28;45398;-78
2022/01/26 11:52:23;;;;;;;;;15.50;15.00;;;;;-146.25;100.00;57879.81;5036763;28;45423;-78
2022/01/26 11:54:59;;;;;;;;;17.75;16.25;;;;;-146.25;100.00;57879.81;5037276;28;45489;-78
2022/01/26 11:57:45;;;;;;;;;17.50;16.50;;;;;-146.25;100.00;57879.81;5036731;28;45976;-78
2022/01/26 12:00:16;;;;;;;;;16.50;14.50;;;;;-146.25;100.00;57879.81;5036608;28;45441;-80
2022/01/26 12:05:19;;;;;;;;;17.00;16.25;;;;;-146.25;100.00;57879.81;5036940;28;45558;-77
2022/01/26 12:07:56;;;;;;;;;20.50;18.75;;;;;-146.25;100.00;57879.81;5036374;28;46029;-77
2022/01/26 12:10:32;;;;;;;;;20.75;19.25;;;;;-146.25;100.00;57879.81;5036532;28;45631;-77
2022/01/26 12:13:04;;;;;;;;;23.00;20.25;;;;;-146.25;100.00;57879.81;5036766;28;45492;-77
2022/01/26 12:15:38;;;;;;;;;20.00;18.25;;;;;-146.25;100.00;57879.81;5036755;28;45370;-77
2022/01/26 12:32:34;;;;;;;;;25.50;21.75;;;;;-146.25;100.00;57879.81;5039546;28;45441;-77
2022/01/26 12:35:20;;;;;;;;;25.50;24.00;;;;;-146.25;100.00;57879.81;5039633;28;45481;-76
2022/01/26 12:43:39;;;;;;;;;20.75;20.75;;;;;-146.25;100.00;57879.81;5039916;28;45410;-79
2022/01/26 12:46:13;;;;;;;;;25.75;23.00;;;;;-146.25;100.00;57879.81;5039561;28;45267;-79
2022/01/26 12:48:42;;;;;;;;;21.00;20.75;;;;;-146.25;100.00;57879.81;5039728;28;45481;-79
2022/01/26 12:51:10;;;;;;;;;22.50;20.50;;;;;-146.25;100.00;57879.81;5039168;28;45234;-79
2022/01/26 12:53:37;;;;;;;;;24.75;20.75;;;;;-146.25;100.00;57879.81;5039348;28;45408;-79
2022/01/26 12:56:08;;;;;;;;;16.75;15.00;;;;;-146.25;100.00;57879.81;5039237;28;45367;-79
2022/01/26 12:58:40;;;;;;;;;19.25;18.75;;;;;-146.25;100.00;57879.81;5039538;28;45304;-79
2022/01/26 13:01:09;;;;;;;;;15.50;14.75;;;;;-146.25;100.00;57879.81;5039215;28;45580;-79
2022/01/26 13:03:40;;;;;;;;;21.00;18.50;;;;;-146.25;100.00;57879.81;5039114;28;45489;-79
2022/01/26 13:06:12;;;;;;;;;23.25;19.75;;;;;-146.25;100.00;57879.81;5039241;28;45410;-79
2022/01/26 13:08:50;;;;;;;;;26.25;25.25;;;;;-146.25;100.00;57879.81;5039186;28;45465;-79
2022/01/26 13:11:32;;;;;;;;;42.75;33.75;;;;;-146.25;100.00;57879.81;5037340;28;45641;-79
2022/01/26 13:14:18;;;;;;;;;21.25;19.25;;;;;-146.25;100.00;57879.81;5039117;28;45425;-79
2022/01/26 13:17:29;;;;;;;;;28.25;24.75;;;;;-146.25;100.00;57879.81;5039263;28;45437;-78
2022/01/26 13:25:53;;;;;;;;;18.25;17.25;;;;;-146.25;100.00;57879.81;5039078;28;45587;-79
2022/01/26 13:51:59;;;;;;;;;19.00;18.00;;;;;-146.25;100.00;57879.81;5038716;28;45299;-76
2022/01/26 13:54:46;;;;;;;;;21.25;19.50;;;;;-146.25;100.00;57879.81;5038123;28;46019;-76